createdAt,value
2018-06-14T00:00:13.825Z,5.83
2018-06-14T00:02:41.183Z,4.97
2018-06-14T00:05:08.305Z,6.30
2018-06-14T00:07:35.603Z,5.87
2018-06-14T00:10:02.856Z,4.70
2018-06-14T00:12:30.003Z,4.90
2018-06-14T00:14:57.130Z,5.70
2018-06-14T00:17:24.413Z,8.03
2018-06-14T00:19:51.618Z,6.37
2018-06-14T00:22:18.816Z,7.80
2018-06-14T00:24:45.994Z,7.97
2018-06-14T00:27:13.119Z,5.97
2018-06-14T00:29:40.238Z,5.60
2018-06-14T00:32:07.467Z,4.30
2018-06-14T00:34:34.618Z,4.80
2018-06-14T00:37:01.772Z,5.37
2018-06-14T00:39:28.909Z,5.47
2018-06-14T00:41:56.147Z,4.93
2018-06-14T00:44:23.326Z,4.50
2018-06-14T00:46:50.639Z,4.80
2018-06-14T00:49:17.867Z,7.07
2018-06-14T00:51:44.980Z,5.73
2018-06-14T00:54:12.203Z,6.77
2018-06-14T00:56:45.247Z,6.73
2018-06-14T00:59:12.388Z,6.77
2018-06-14T01:01:39.491Z,5.43
2018-06-14T01:04:06.610Z,4.83
2018-06-14T01:06:33.773Z,7.03
2018-06-14T01:09:00.919Z,8.53
2018-06-14T01:11:28.027Z,4.07
2018-06-14T01:13:55.185Z,4.70
2018-06-14T01:16:23.134Z,4.37
2018-06-14T01:18:50.287Z,3.43
2018-06-14T01:21:17.506Z,5.00
2018-06-14T01:23:44.725Z,4.33
2018-06-14T01:26:12.030Z,4.20
2018-06-14T01:28:39.218Z,5.83
2018-06-14T01:31:06.347Z,7.00
2018-06-14T01:33:33.531Z,8.90
2018-06-14T01:36:00.635Z,4.53
2018-06-14T01:38:27.726Z,6.23
2018-06-14T01:40:55.113Z,4.60
2018-06-14T01:43:22.494Z,5.23
2018-06-14T01:45:49.695Z,5.23
2018-06-14T01:48:17.243Z,3.53
2018-06-14T01:50:44.822Z,3.87
2018-06-14T01:53:12.002Z,6.70
2018-06-14T01:55:39.494Z,3.50
2018-06-14T01:58:06.606Z,4.87
2018-06-14T02:00:33.753Z,5.80
2018-06-14T02:03:00.882Z,4.47
2018-06-14T02:05:28.286Z,5.40
2018-06-14T02:07:55.512Z,4.27
2018-06-14T02:10:22.698Z,10.10
2018-06-14T02:12:49.842Z,4.07
2018-06-14T02:15:17.073Z,4.63
2018-06-14T02:17:44.258Z,4.83
2018-06-14T02:20:11.406Z,5.57
2018-06-14T02:22:38.842Z,5.30
2018-06-14T02:25:06.182Z,4.10
2018-06-14T02:27:33.322Z,5.00
2018-06-14T02:30:00.462Z,3.60
2018-06-14T02:32:28.032Z,4.37
2018-06-14T02:34:55.130Z,3.63
2018-06-14T02:37:22.327Z,4.13
2018-06-14T02:39:49.531Z,5.00
2018-06-14T02:42:16.730Z,4.13
2018-06-14T02:44:43.900Z,5.40
2018-06-14T02:47:11.043Z,5.57
2018-06-14T02:49:38.761Z,7.43
2018-06-14T02:52:05.877Z,3.60
2018-06-14T02:54:32.998Z,4.60
2018-06-14T02:57:00.142Z,3.83
2018-06-14T02:59:27.305Z,3.40
2018-06-14T03:01:54.415Z,4.30
2018-06-14T03:04:21.587Z,4.30
2018-06-14T03:06:48.751Z,4.63
2018-06-14T03:09:16.094Z,4.00
2018-06-14T03:11:43.206Z,3.57
2018-06-14T03:14:10.350Z,5.07
2018-06-14T03:16:37.487Z,4.37
2018-06-14T03:19:04.573Z,5.50
2018-06-14T03:21:31.748Z,3.00
2018-06-14T03:23:58.898Z,3.40
2018-06-14T03:26:26.125Z,3.43
2018-06-14T03:28:53.245Z,3.43
2018-06-14T03:31:20.425Z,4.50
2018-06-14T03:33:47.674Z,3.87
2018-06-14T03:36:15.050Z,5.23
2018-06-14T03:38:42.194Z,3.30
2018-06-14T03:41:09.330Z,3.40
2018-06-14T03:43:36.458Z,10.03
2018-06-14T03:46:03.605Z,3.50
2018-06-14T03:48:30.757Z,3.87
2018-06-14T03:50:57.851Z,3.60
2018-06-14T03:53:24.981Z,4.10
2018-06-14T03:55:52.106Z,3.33
2018-06-14T03:58:19.540Z,4.27
2018-06-14T04:00:47.031Z,5.47
2018-06-14T04:03:14.181Z,5.20
2018-06-14T04:05:41.301Z,3.90
2018-06-14T04:08:08.614Z,4.10
2018-06-14T04:10:35.754Z,3.87
2018-06-14T04:13:02.870Z,4.50
2018-06-14T04:15:29.978Z,3.97
2018-06-14T04:18:00.541Z,5.93
2018-06-14T04:20:27.668Z,3.30
2018-06-14T04:22:54.800Z,4.57
2018-06-14T04:25:21.970Z,7.80
2018-06-14T04:27:49.138Z,6.00
2018-06-14T04:30:16.354Z,3.80
2018-06-14T04:32:43.509Z,5.50
2018-06-14T04:35:10.645Z,4.70
2018-06-14T04:37:37.786Z,6.90
2018-06-14T04:40:05.035Z,3.67
2018-06-14T04:42:32.159Z,4.23
2018-06-14T04:44:59.286Z,3.37
2018-06-14T04:47:26.396Z,4.30
2018-06-14T04:49:53.530Z,3.90
2018-06-14T04:52:20.682Z,4.87
2018-06-14T04:54:48.243Z,4.20
2018-06-14T04:57:15.745Z,4.73
2018-06-14T04:59:42.924Z,4.53
2018-06-14T05:02:10.270Z,7.17
2018-06-14T05:04:37.383Z,4.70
2018-06-14T05:07:04.545Z,6.03
2018-06-14T05:09:31.665Z,7.50
2018-06-14T05:11:58.806Z,5.47
2018-06-14T05:14:25.914Z,11.70
2018-06-14T05:16:53.073Z,6.50
2018-06-14T05:19:20.210Z,6.63
2018-06-14T05:21:47.345Z,6.23
2018-06-14T05:24:14.462Z,5.93
2018-06-14T05:26:41.852Z,6.00
2018-06-14T05:29:08.976Z,5.10
2018-06-14T05:31:36.102Z,7.07
2018-06-14T05:34:03.242Z,5.83
2018-06-14T05:36:30.387Z,13.43
2018-06-14T05:38:57.604Z,6.73
2018-06-14T05:41:24.737Z,7.97
2018-06-14T05:43:51.914Z,8.27
2018-06-14T05:46:19.560Z,6.40
2018-06-14T05:48:46.740Z,9.63
2018-06-14T05:51:13.882Z,7.47
2018-06-14T05:53:41.011Z,6.80
2018-06-14T05:56:08.189Z,8.17
2018-06-14T05:58:35.313Z,8.80
2018-06-14T06:01:02.463Z,7.17
2018-06-14T06:03:29.592Z,6.90
2018-06-14T06:05:56.734Z,5.10
2018-06-14T06:08:23.890Z,7.63
2018-06-14T06:10:51.030Z,5.60
2018-06-14T06:13:18.187Z,10.50
2018-06-14T06:15:45.352Z,9.17
2018-06-14T06:18:12.466Z,5.27
2018-06-14T06:20:39.638Z,9.23
2018-06-14T06:23:06.743Z,10.00
2018-06-14T06:25:33.884Z,8.90
2018-06-14T06:28:01.032Z,8.70
2018-06-14T06:30:28.173Z,7.00
2018-06-14T06:32:55.322Z,8.67
2018-06-14T06:35:22.474Z,5.30
2018-06-14T06:37:49.929Z,17.77
2018-06-14T06:40:17.174Z,6.10
2018-06-14T06:42:44.297Z,9.50
2018-06-14T06:45:11.411Z,8.63
2018-06-14T06:47:38.562Z,9.90
2018-06-14T06:50:05.702Z,7.27
2018-06-14T06:52:32.838Z,8.13
2018-06-14T06:54:59.950Z,7.20
2018-06-14T06:57:27.059Z,8.10
2018-06-14T06:59:54.181Z,9.00
2018-06-14T07:02:21.330Z,6.80
2018-06-14T07:04:48.518Z,7.53
2018-06-14T07:07:15.645Z,7.50
2018-06-14T07:09:42.786Z,7.30
2018-06-14T07:12:09.903Z,7.50
2018-06-14T07:14:37.038Z,8.93
2018-06-14T07:17:04.245Z,6.90
2018-06-14T07:19:31.382Z,9.60
2018-06-14T07:21:58.646Z,7.40
2018-06-14T07:24:25.672Z,6.40
2018-06-14T07:26:52.798Z,9.17
2018-06-14T07:29:19.974Z,6.67
2018-06-14T07:31:47.125Z,6.47
2018-06-14T07:34:14.269Z,7.73
2018-06-14T07:36:41.368Z,6.97
2018-06-14T07:39:10.138Z,7.23
2018-06-14T07:41:37.313Z,8.17
2018-06-14T07:44:04.577Z,7.10
2018-06-14T07:46:32.037Z,10.60
2018-06-14T07:48:59.537Z,8.47
2018-06-14T07:51:26.658Z,7.27
2018-06-14T07:53:53.763Z,9.03
2018-06-14T07:56:20.962Z,6.57
2018-06-14T07:58:48.166Z,6.37
2018-06-14T08:01:15.339Z,8.70
2018-06-14T08:03:42.454Z,8.23
2018-06-14T08:06:09.588Z,8.30
2018-06-14T08:08:36.697Z,7.80
2018-06-14T08:11:03.813Z,6.20
2018-06-14T08:13:30.967Z,7.60
2018-06-14T08:15:58.078Z,7.23
2018-06-14T08:18:25.229Z,9.77
2018-06-14T08:20:52.383Z,6.80
2018-06-14T08:23:19.587Z,6.63
2018-06-14T08:25:46.759Z,9.13
2018-06-14T08:28:13.872Z,6.70
2018-06-14T08:30:40.969Z,5.70
2018-06-14T08:33:08.102Z,6.30
2018-06-14T08:35:35.219Z,5.70
2018-06-14T08:38:02.409Z,5.83
2018-06-14T08:40:29.481Z,6.53
2018-06-14T08:42:56.638Z,6.50
2018-06-14T08:45:23.837Z,6.73
2018-06-14T08:47:51.009Z,6.60
2018-06-14T08:50:18.234Z,7.60
2018-06-14T08:52:45.338Z,7.97
2018-06-14T08:55:12.798Z,6.33
2018-06-14T08:57:39.923Z,7.00
2018-06-14T09:00:07.086Z,6.00
2018-06-14T09:02:34.214Z,7.47
2018-06-14T09:05:01.346Z,10.30
2018-06-14T09:07:28.447Z,6.13
2018-06-14T09:12:29.578Z,19.23
2018-06-14T09:14:56.750Z,48.90
2018-06-14T09:20:54.885Z,7.77
2018-06-14T09:23:22.045Z,6.80
2018-06-14T09:25:49.221Z,9.67
2018-06-14T09:28:16.435Z,7.20
2018-06-14T09:30:43.579Z,7.23
2018-06-14T09:33:10.705Z,8.20
2018-06-14T09:35:37.820Z,7.00
2018-06-14T09:38:04.990Z,8.13
2018-06-14T09:40:32.117Z,6.73
2018-06-14T09:42:59.266Z,9.40
2018-06-14T09:45:26.387Z,7.30
2018-06-14T09:47:53.543Z,6.50
2018-06-14T09:50:20.834Z,7.07
2018-06-14T09:52:48.019Z,8.13
2018-06-14T09:55:15.509Z,6.40
2018-06-14T09:57:42.658Z,6.20
2018-06-14T10:00:09.763Z,6.30
2018-06-14T10:02:36.878Z,8.97
2018-06-14T10:05:04.035Z,6.87
2018-06-14T10:07:31.181Z,7.13
2018-06-14T10:09:58.289Z,6.20
2018-06-14T10:12:25.449Z,6.43
2018-06-14T10:14:52.606Z,8.70
2018-06-14T10:17:19.759Z,10.60
2018-06-14T10:19:46.899Z,7.33
2018-06-14T10:22:14.050Z,7.83
2018-06-14T10:24:41.282Z,7.23
2018-06-14T10:27:08.410Z,6.90
2018-06-14T10:29:35.522Z,6.87
2018-06-14T10:32:02.665Z,9.03
2018-06-14T10:34:29.810Z,9.77
2018-06-14T10:36:56.915Z,9.30
2018-06-14T10:41:57.905Z,11.53
2018-06-14T10:44:25.040Z,8.47
2018-06-14T10:46:52.241Z,9.70
2018-06-14T10:49:19.433Z,9.70
2018-06-14T10:51:46.561Z,10.53
2018-06-14T10:54:13.697Z,12.27
2018-06-14T10:56:40.815Z,11.27
2018-06-14T10:59:07.947Z,11.90
2018-06-14T11:01:35.065Z,13.17
2018-06-14T11:04:02.154Z,13.50
2018-06-14T11:06:29.311Z,14.77
2018-06-14T11:08:56.421Z,14.10
2018-06-14T11:11:23.575Z,14.67
2018-06-14T11:13:50.734Z,13.10
2018-06-14T11:16:17.957Z,15.00
2018-06-14T11:18:45.073Z,14.40
2018-06-14T11:21:12.181Z,15.63
2018-06-14T11:23:39.323Z,15.70
2018-06-14T11:26:06.482Z,15.43
2018-06-14T11:28:33.606Z,16.13
2018-06-14T11:31:00.737Z,13.93
2018-06-14T11:33:27.846Z,14.80
2018-06-14T11:35:54.993Z,15.97
2018-06-14T11:38:22.134Z,13.80
2018-06-14T11:40:49.294Z,16.13
2018-06-14T11:43:16.433Z,16.13
2018-06-14T11:45:43.538Z,16.23
2018-06-14T11:48:10.672Z,15.63
2018-06-14T11:50:37.839Z,17.77
2018-06-14T11:53:04.974Z,14.63
2018-06-14T11:55:32.082Z,15.67
2018-06-14T11:57:59.156Z,15.47
2018-06-14T12:00:26.281Z,14.30
2018-06-14T12:02:53.410Z,15.30
2018-06-14T12:05:20.566Z,14.30
2018-06-14T12:07:47.724Z,14.73
2018-06-14T12:10:14.854Z,14.53
2018-06-14T12:12:41.982Z,14.07
2018-06-14T12:15:09.118Z,14.07
2018-06-14T12:17:36.379Z,14.40
2018-06-14T12:20:03.493Z,13.63
2018-06-14T12:22:30.624Z,13.70
2018-06-14T12:24:57.730Z,13.17
2018-06-14T12:27:24.858Z,14.80
2018-06-14T12:29:51.963Z,12.10
2018-06-14T12:32:19.175Z,13.50
2018-06-14T12:34:46.677Z,12.13
2018-06-14T12:37:13.770Z,12.10
2018-06-14T12:39:40.925Z,12.70
2018-06-14T12:42:08.051Z,13.87
2018-06-14T12:44:35.263Z,12.33
2018-06-14T12:47:02.385Z,12.43
2018-06-14T12:49:29.498Z,13.70
2018-06-14T12:51:56.647Z,12.23
2018-06-14T12:54:23.741Z,12.33
2018-06-14T12:56:50.874Z,12.60
2018-06-14T12:59:19.744Z,12.47
2018-06-14T13:01:47.089Z,12.63
2018-06-14T13:04:14.251Z,12.93
2018-06-14T13:06:41.362Z,12.60
2018-06-14T13:09:10.077Z,13.77
2018-06-14T13:11:37.191Z,12.40
2018-06-14T13:14:04.322Z,13.03
2018-06-14T13:16:31.455Z,12.03
2018-06-14T13:18:58.565Z,11.33
2018-06-14T13:21:25.732Z,11.87
2018-06-14T13:23:52.858Z,13.07
2018-06-14T13:26:19.985Z,11.60
2018-06-14T13:28:47.159Z,12.57
2018-06-14T13:31:14.354Z,14.83
2018-06-14T13:33:41.566Z,13.53
2018-06-14T13:36:08.684Z,13.00
2018-06-14T13:38:35.818Z,11.57
2018-06-14T13:41:02.909Z,11.63
2018-06-14T13:43:29.997Z,10.40
2018-06-14T13:45:57.142Z,10.60
2018-06-14T13:48:24.238Z,9.70
2018-06-14T13:50:51.380Z,10.10
2018-06-14T13:53:18.542Z,9.90
2018-06-14T13:55:45.721Z,10.60
2018-06-14T13:58:12.866Z,10.20
2018-06-14T14:00:40.024Z,10.40
2018-06-14T14:03:07.122Z,8.80
2018-06-14T14:05:34.234Z,10.27
2018-06-14T14:08:01.390Z,9.30
2018-06-14T14:10:28.486Z,9.23
2018-06-14T14:12:55.590Z,9.53
2018-06-14T14:15:22.749Z,9.63
2018-06-14T14:17:49.898Z,9.80
2018-06-14T14:20:17.070Z,8.00
2018-06-14T14:22:44.254Z,8.20
2018-06-14T14:25:11.363Z,8.27
2018-06-14T14:27:38.494Z,8.17
2018-06-14T14:30:05.622Z,8.83
2018-06-14T14:32:32.747Z,8.07
2018-06-14T14:34:59.978Z,7.80
2018-06-14T14:37:27.078Z,9.07
2018-06-14T14:39:54.326Z,9.50
2018-06-14T14:42:21.426Z,7.20
2018-06-14T14:44:48.606Z,8.10
2018-06-14T14:47:15.748Z,8.73
2018-06-14T14:49:42.892Z,8.80
2018-06-14T14:52:09.995Z,10.10
2018-06-14T14:54:37.131Z,9.00
2018-06-14T14:57:04.290Z,8.30
2018-06-14T14:59:31.378Z,9.37
2018-06-14T15:01:58.866Z,7.93
2018-06-14T15:04:25.975Z,8.73
2018-06-14T15:06:53.158Z,7.60
2018-06-14T15:09:20.266Z,7.73
2018-06-14T15:11:47.450Z,8.33
2018-06-14T15:14:14.617Z,8.90
2018-06-14T15:16:41.754Z,7.57
2018-06-14T15:19:08.865Z,7.97
2018-06-14T15:21:35.970Z,9.30
2018-06-14T15:24:03.129Z,8.43
2018-06-14T15:26:30.277Z,6.77
2018-06-14T15:28:57.381Z,8.03
2018-06-14T15:31:24.522Z,8.03
2018-06-14T15:33:51.733Z,9.07
2018-06-14T15:36:18.846Z,8.90
2018-06-14T15:38:46.068Z,7.63
2018-06-14T15:41:13.218Z,9.63
2018-06-14T15:43:40.374Z,8.53
2018-06-14T15:46:07.534Z,8.93
2018-06-14T15:48:34.738Z,8.13
2018-06-14T15:51:01.846Z,7.90
2018-06-14T15:53:28.990Z,8.00
2018-06-14T15:56:11.334Z,6.93
2018-06-14T15:58:38.481Z,8.17
2018-06-14T16:01:06.238Z,7.40
2018-06-14T16:03:33.451Z,9.13
2018-06-14T16:06:00.762Z,7.30
2018-06-14T16:08:28.061Z,7.07
2018-06-14T16:10:55.175Z,7.60
2018-06-14T16:13:22.325Z,7.40
2018-06-14T16:15:49.654Z,8.53
2018-06-14T16:18:16.862Z,7.30
2018-06-14T16:20:44.261Z,8.10
2018-06-14T16:23:11.379Z,7.50
2018-06-14T16:25:38.482Z,7.07
2018-06-14T16:28:05.618Z,6.70
2018-06-14T16:30:32.783Z,5.67
2018-06-14T16:32:59.929Z,6.60
2018-06-14T16:35:27.046Z,6.43
2018-06-14T16:37:54.167Z,8.10
2018-06-14T16:40:21.337Z,6.73
2018-06-14T16:42:48.454Z,7.57
2018-06-14T16:45:15.609Z,7.50
2018-06-14T16:47:42.867Z,8.53
2018-06-14T16:50:10.024Z,7.63
2018-06-14T16:52:37.406Z,7.07
2018-06-14T16:55:04.534Z,6.60
2018-06-14T16:57:31.629Z,7.83
2018-06-14T16:59:58.784Z,7.90
2018-06-14T17:02:26.055Z,7.67
2018-06-14T17:04:53.242Z,11.20
2018-06-14T17:07:20.430Z,7.90
2018-06-14T17:09:47.614Z,7.03
2018-06-14T17:12:14.754Z,8.57
2018-06-14T17:14:41.882Z,7.17
2018-06-14T17:17:09.019Z,7.17
2018-06-14T17:19:36.122Z,6.30
2018-06-14T17:22:03.253Z,9.53
2018-06-14T17:24:30.396Z,9.03
2018-06-14T17:26:57.609Z,7.77
2018-06-14T17:29:24.822Z,6.77
2018-06-14T17:31:51.914Z,6.30
2018-06-14T17:34:19.104Z,6.97
2018-06-14T17:36:46.315Z,7.47
2018-06-14T17:39:13.473Z,7.37
2018-06-14T17:41:40.578Z,7.00
2018-06-14T17:44:07.710Z,6.63
2018-06-14T17:46:34.838Z,8.23
2018-06-14T17:49:01.945Z,6.70
2018-06-14T17:51:29.120Z,7.53
2018-06-14T17:53:56.211Z,7.73
2018-06-14T17:56:23.318Z,5.47
2018-06-14T17:58:50.530Z,6.93
2018-06-14T18:01:17.734Z,6.43
2018-06-14T18:03:44.842Z,7.03
2018-06-14T18:06:11.960Z,6.00
2018-06-14T18:08:39.094Z,6.23
2018-06-14T18:11:06.201Z,6.30
2018-06-14T18:13:33.355Z,6.23
2018-06-14T18:16:00.493Z,7.03
2018-06-14T18:18:27.639Z,6.93
2018-06-14T18:20:54.786Z,6.63
2018-06-14T18:23:21.918Z,6.67
2018-06-14T18:25:49.070Z,5.50
2018-06-14T18:28:16.247Z,6.27
2018-06-14T18:30:43.442Z,6.47
2018-06-14T18:33:10.531Z,5.60
2018-06-14T18:35:37.645Z,5.80
2018-06-14T18:38:04.832Z,6.27
2018-06-14T18:40:31.921Z,6.30
2018-06-14T18:42:59.057Z,6.80
2018-06-14T18:45:26.268Z,7.07
2018-06-14T18:47:53.309Z,6.87
2018-06-14T18:50:20.497Z,6.87
2018-06-14T18:52:47.682Z,7.50
2018-06-14T18:55:14.786Z,8.10
2018-06-14T18:57:41.941Z,8.00
2018-06-14T19:00:09.126Z,7.67
2018-06-14T19:02:36.238Z,7.63
2018-06-14T19:05:03.352Z,7.13
2018-06-14T19:07:30.481Z,7.03
2018-06-14T19:09:57.562Z,7.50
2018-06-14T19:12:24.693Z,7.00
2018-06-14T19:14:51.838Z,7.03
2018-06-14T19:17:18.998Z,7.07
2018-06-14T19:19:46.130Z,8.00
2018-06-14T19:22:13.306Z,7.70
2018-06-14T19:24:40.446Z,6.30
2018-06-14T19:27:07.578Z,7.40
2018-06-14T19:29:34.712Z,10.30
2018-06-14T19:32:01.853Z,7.57
2018-06-14T19:34:28.958Z,5.83
2018-06-14T19:36:56.074Z,6.90
2018-06-14T19:39:23.206Z,7.57
2018-06-14T19:41:50.355Z,6.67
2018-06-14T19:44:17.530Z,6.80
2018-06-14T19:46:44.641Z,7.47
2018-06-14T19:49:11.794Z,9.07
2018-06-14T19:51:38.922Z,7.40
2018-06-14T19:54:06.037Z,7.37
2018-06-14T19:56:33.186Z,7.97
2018-06-14T19:59:00.306Z,6.97
2018-06-14T20:01:27.440Z,6.90
2018-06-14T20:03:54.749Z,7.20
2018-06-14T20:06:21.874Z,7.30
2018-06-14T20:08:49.001Z,6.13
2018-06-14T20:11:16.212Z,6.53
2018-06-14T20:13:43.456Z,9.63
2018-06-14T20:16:10.601Z,7.07
2018-06-14T20:18:37.701Z,7.63
2018-06-14T20:21:04.895Z,6.87
2018-06-14T20:23:31.954Z,8.07
2018-06-14T20:25:59.063Z,8.40
2018-06-14T20:28:26.198Z,9.20
2018-06-14T20:30:53.367Z,8.23
2018-06-14T20:33:20.536Z,9.67
2018-06-14T20:35:47.666Z,8.90
2018-06-14T20:38:14.797Z,10.17
2018-06-14T20:40:42.075Z,9.53
2018-06-14T20:43:09.241Z,8.97
2018-06-14T20:45:36.358Z,9.20
2018-06-14T20:48:03.479Z,10.17
2018-06-14T20:50:30.625Z,9.17
2018-06-14T20:52:57.730Z,8.70
2018-06-14T20:55:24.858Z,8.87
2018-06-14T20:57:51.970Z,10.20
2018-06-14T21:00:19.220Z,8.97
2018-06-14T21:02:46.388Z,9.40
2018-06-14T21:05:13.495Z,10.57
2018-06-14T21:07:40.618Z,11.00
2018-06-14T21:10:07.718Z,10.40
2018-06-14T21:12:34.878Z,11.33
2018-06-14T21:15:02.004Z,12.10
2018-06-14T21:17:29.154Z,11.57
2018-06-14T21:19:56.264Z,13.53
2018-06-14T21:22:23.365Z,13.40
2018-06-14T21:24:50.790Z,12.77
2018-06-14T21:27:17.954Z,13.73
2018-06-14T21:29:45.103Z,13.20
2018-06-14T21:32:12.222Z,13.83
2018-06-14T21:34:39.362Z,13.33
2018-06-14T21:37:06.462Z,12.00
2018-06-14T21:39:33.599Z,14.40
2018-06-14T21:42:00.745Z,15.17
2018-06-14T21:44:27.874Z,14.57
2018-06-14T21:46:55.044Z,15.33
2018-06-14T21:49:22.362Z,15.13
2018-06-14T21:51:49.505Z,17.13
2018-06-14T21:54:16.666Z,15.20
2018-06-14T21:56:43.775Z,15.73
2018-06-14T21:59:10.908Z,18.00
2018-06-14T22:01:38.042Z,17.17
2018-06-14T22:04:05.174Z,17.20
2018-06-14T22:06:32.306Z,17.20
2018-06-14T22:08:59.973Z,18.50
2018-06-14T22:11:27.210Z,16.87
2018-06-14T22:13:54.570Z,17.37
2018-06-14T22:16:21.910Z,19.60
2018-06-14T22:18:49.083Z,18.80
2018-06-14T22:21:16.201Z,17.53
2018-06-14T22:23:43.301Z,18.20
2018-06-14T22:26:10.426Z,19.00
2018-06-14T22:28:37.522Z,17.93
2018-06-14T22:31:04.663Z,18.43
2018-06-14T22:33:37.667Z,19.77
2018-06-14T22:36:04.790Z,20.13
2018-06-14T22:38:32.146Z,21.40
2018-06-14T22:40:59.257Z,18.97
2018-06-14T22:43:26.375Z,19.37
2018-06-14T22:45:53.509Z,17.63
2018-06-14T22:48:20.639Z,19.30
2018-06-14T22:50:53.726Z,19.00
2018-06-14T22:53:20.902Z,19.83
2018-06-14T22:55:48.094Z,21.53
2018-06-14T22:58:15.227Z,20.10
2018-06-14T23:01:02.062Z,19.10
2018-06-14T23:03:29.510Z,18.30
2018-06-14T23:05:56.626Z,20.70
2018-06-14T23:08:23.726Z,21.30
2018-06-14T23:10:56.753Z,18.83
2018-06-14T23:13:23.858Z,21.07
2018-06-14T23:15:51.134Z,19.00
2018-06-14T23:18:18.294Z,19.07
2018-06-14T23:20:45.420Z,18.83
2018-06-14T23:23:12.546Z,20.57
2018-06-14T23:25:46.455Z,20.50
2018-06-14T23:28:13.552Z,19.70
2018-06-14T23:30:40.662Z,20.90
2018-06-14T23:33:07.803Z,19.83
2018-06-14T23:35:34.944Z,21.70
2018-06-14T23:38:02.080Z,18.83
2018-06-14T23:40:29.190Z,18.10
2018-06-14T23:42:56.310Z,20.67
2018-06-14T23:45:23.445Z,21.33
2018-06-14T23:47:50.601Z,19.03
2018-06-14T23:50:17.713Z,20.37
2018-06-14T23:52:44.814Z,18.93
2018-06-14T23:55:11.932Z,18.83
2018-06-14T23:57:39.030Z,20.80
